Terminal Aerodrome Forecast
Issued by NWS Mt. Holly, NJ

Home | Current Version | Previous Version | Text Only | Print | Product List | Glossary On
Versions: 1 2 3 4 5 6 7 8 9 10 11 12 13 14 15
000
FTUS41 KPHI 051136
TAFRDG
TAF
KRDG 051136Z 0512/0612 16004KT 4SM BR BKN008 OVC015
     FM051600 27008KT P6SM SCT015 BKN025
     FM051800 29009KT P6SM BKN035
     FM060000 31006KT P6SM FEW040
     FM060600 VRB03KT P6SM SCT250=

USA.gov is the U.S. government's official web portal to all federal, state and local government web resources and services.